sensor_id;sensor_type;location;lat;lon;timestamp;P1;durP1;ratioP1;P2;durP2;ratioP2
19782;SDS011;10051;40.294;-3.754;2023-08-01T00:01:29;7.97;;;4.50;;
19782;SDS011;10051;40.294;-3.754;2023-08-01T00:03:55;17.33;;;4.63;;
19782;SDS011;10051;40.294;-3.754;2023-08-01T00:06:20;9.30;;;4.30;;
19782;SDS011;10051;40.294;-3.754;2023-08-01T00:08:47;11.93;;;4.65;;
19782;SDS011;10051;40.294;-3.754;2023-08-01T00:11:13;9.75;;;4.45;;
19782;SDS011;10051;40.294;-3.754;2023-08-01T00:13:39;8.18;;;4.22;;
19782;SDS011;10051;40.294;-3.754;2023-08-01T00:16:06;10.60;;;4.50;;
19782;SDS011;10051;40.294;-3.754;2023-08-01T00:18:31;7.30;;;4.13;;
19782;SDS011;10051;40.294;-3.754;2023-08-01T00:20:57;5.78;;;4.18;;
19782;SDS011;10051;40.294;-3.754;2023-08-01T00:23:24;7.35;;;4.20;;
19782;SDS011;10051;40.294;-3.754;2023-08-01T00:25:49;6.50;;;3.90;;
19782;SDS011;10051;40.294;-3.754;2023-08-01T00:28:21;7.25;;;4.13;;
19782;SDS011;10051;40.294;-3.754;2023-08-01T00:30:47;7.00;;;3.75;;
19782;SDS011;10051;40.294;-3.754;2023-08-01T00:33:13;6.80;;;3.80;;
19782;SDS011;10051;40.294;-3.754;2023-08-01T00:35:40;6.38;;;4.10;;
19782;SDS011;10051;40.294;-3.754;2023-08-01T00:38:06;6.53;;;4.10;;
19782;SDS011;10051;40.294;-3.754;2023-08-01T00:40:31;4.95;;;3.67;;
19782;SDS011;10051;40.294;-3.754;2023-08-01T00:42:58;5.75;;;3.70;;
19782;SDS011;10051;40.294;-3.754;2023-08-01T00:45:24;6.97;;;3.80;;
19782;SDS011;10051;40.294;-3.754;2023-08-01T00:47:54;6.15;;;3.78;;
19782;SDS011;10051;40.294;-3.754;2023-08-01T00:50:19;5.88;;;3.92;;
19782;SDS011;10051;40.294;-3.754;2023-08-01T00:52:46;6.60;;;3.83;;
19782;SDS011;10051;40.294;-3.754;2023-08-01T00:55:12;8.35;;;3.92;;
19782;SDS011;10051;40.294;-3.754;2023-08-01T00:57:39;8.05;;;3.80;;
19782;SDS011;10051;40.294;-3.754;2023-08-01T01:00:05;6.85;;;4.00;;
19782;SDS011;10051;40.294;-3.754;2023-08-01T01:02:31;6.45;;;3.95;;
19782;SDS011;10051;40.294;-3.754;2023-08-01T01:04:57;6.30;;;4.30;;
19782;SDS011;10051;40.294;-3.754;2023-08-01T01:07:23;6.90;;;3.85;;
19782;SDS011;10051;40.294;-3.754;2023-08-01T01:09:49;5.05;;;3.85;;
19782;SDS011;10051;40.294;-3.754;2023-08-01T01:12:15;4.82;;;3.90;;
19782;SDS011;10051;40.294;-3.754;2023-08-01T01:14:41;6.78;;;3.65;;
19782;SDS011;10051;40.294;-3.754;2023-08-01T01:17:07;8.38;;;4.00;;
19782;SDS011;10051;40.294;-3.754;2023-08-01T01:19:33;8.15;;;3.83;;
19782;SDS011;10051;40.294;-3.754;2023-08-01T01:21:58;5.00;;;3.65;;
19782;SDS011;10051;40.294;-3.754;2023-08-01T01:24:24;5.90;;;3.45;;
19782;SDS011;10051;40.294;-3.754;2023-08-01T01:26:52;6.95;;;3.60;;
19782;SDS011;10051;40.294;-3.754;2023-08-01T01:29:19;6.15;;;3.55;;
19782;SDS011;10051;40.294;-3.754;2023-08-01T01:31:46;5.45;;;3.80;;
19782;SDS011;10051;40.294;-3.754;2023-08-01T01:34:13;5.25;;;3.58;;
19782;SDS011;10051;40.294;-3.754;2023-08-01T01:36:39;5.70;;;3.40;;
19782;SDS011;10051;40.294;-3.754;2023-08-01T01:39:05;5.03;;;3.55;;
19782;SDS011;10051;40.294;-3.754;2023-08-01T01:41:30;5.82;;;3.42;;
19782;SDS011;10051;40.294;-3.754;2023-08-01T01:43:56;5.07;;;3.35;;
19782;SDS011;10051;40.294;-3.754;2023-08-01T01:46:21;6.22;;;3.58;;
19782;SDS011;10051;40.294;-3.754;2023-08-01T01:48:47;8.07;;;3.55;;
19782;SDS011;10051;40.294;-3.754;2023-08-01T01:51:13;5.05;;;3.40;;
19782;SDS011;10051;40.294;-3.754;2023-08-01T01:53:38;8.02;;;3.60;;
19782;SDS011;10051;40.294;-3.754;2023-08-01T01:56:04;5.53;;;3.60;;
19782;SDS011;10051;40.294;-3.754;2023-08-01T01:58:30;6.97;;;3.47;;
19782;SDS011;10051;40.294;-3.754;2023-08-01T02:00:55;5.78;;;3.20;;
19782;SDS011;10051;40.294;-3.754;2023-08-01T02:03:21;5.45;;;3.67;;
19782;SDS011;10051;40.294;-3.754;2023-08-01T02:05:46;6.65;;;3.30;;
19782;SDS011;10051;40.294;-3.754;2023-08-01T02:08:12;4.10;;;3.25;;
19782;SDS011;10051;40.294;-3.754;2023-08-01T02:10:38;7.90;;;3.17;;
19782;SDS011;10051;40.294;-3.754;2023-08-01T02:13:03;4.75;;;3.17;;
19782;SDS011;10051;40.294;-3.754;2023-08-01T02:15:29;9.77;;;3.20;;
19782;SDS011;10051;40.294;-3.754;2023-08-01T02:17:55;4.45;;;3.13;;
19782;SDS011;10051;40.294;-3.754;2023-08-01T02:20:21;6.15;;;3.08;;
19782;SDS011;10051;40.294;-3.754;2023-08-01T02:22:47;5.90;;;3.22;;
19782;SDS011;10051;40.294;-3.754;2023-08-01T02:25:12;3.67;;;2.88;;
19782;SDS011;10051;40.294;-3.754;2023-08-01T02:27:38;8.73;;;3.50;;
19782;SDS011;10051;40.294;-3.754;2023-08-01T02:30:03;4.75;;;3.40;;
19782;SDS011;10051;40.294;-3.754;2023-08-01T02:32:30;4.03;;;2.97;;
19782;SDS011;10051;40.294;-3.754;2023-08-01T02:34:56;5.95;;;3.50;;
19782;SDS011;10051;40.294;-3.754;2023-08-01T02:37:21;5.40;;;2.90;;
19782;SDS011;10051;40.294;-3.754;2023-08-01T02:39:47;4.38;;;2.88;;
19782;SDS011;10051;40.294;-3.754;2023-08-01T02:42:12;5.97;;;2.95;;
19782;SDS011;10051;40.294;-3.754;2023-08-01T02:44:38;5.13;;;3.00;;
19782;SDS011;10051;40.294;-3.754;2023-08-01T02:47:04;5.68;;;3.00;;
19782;SDS011;10051;40.294;-3.754;2023-08-01T02:49:31;5.20;;;3.30;;
19782;SDS011;10051;40.294;-3.754;2023-08-01T02:51:57;5.60;;;3.03;;
19782;SDS011;10051;40.294;-3.754;2023-08-01T02:54:24;4.53;;;3.03;;
19782;SDS011;10051;40.294;-3.754;2023-08-01T02:56:49;3.78;;;2.80;;
19782;SDS011;10051;40.294;-3.754;2023-08-01T02:59:16;6.10;;;3.00;;
19782;SDS011;10051;40.294;-3.754;2023-08-01T03:01:43;7.47;;;2.85;;
19782;SDS011;10051;40.294;-3.754;2023-08-01T03:04:09;7.95;;;2.58;;
19782;SDS011;10051;40.294;-3.754;2023-08-01T03:06:37;4.60;;;2.80;;
19782;SDS011;10051;40.294;-3.754;2023-08-01T03:09:03;4.10;;;2.90;;
19782;SDS011;10051;40.294;-3.754;2023-08-01T03:11:33;4.07;;;2.70;;
19782;SDS011;10051;40.294;-3.754;2023-08-01T03:14:02;6.32;;;3.00;;
19782;SDS011;10051;40.294;-3.754;2023-08-01T03:16:29;5.25;;;3.17;;
19782;SDS011;10051;40.294;-3.754;2023-08-01T03:18:55;8.70;;;3.20;;
19782;SDS011;10051;40.294;-3.754;2023-08-01T03:21:21;6.00;;;3.10;;
19782;SDS011;10051;40.294;-3.754;2023-08-01T03:23:47;5.40;;;2.75;;
19782;SDS011;10051;40.294;-3.754;2023-08-01T03:26:12;7.13;;;2.72;;
19782;SDS011;10051;40.294;-3.754;2023-08-01T03:28:40;4.47;;;2.90;;
19782;SDS011;10051;40.294;-3.754;2023-08-01T03:31:05;5.75;;;2.97;;
19782;SDS011;10051;40.294;-3.754;2023-08-01T03:33:32;6.38;;;2.72;;
19782;SDS011;10051;40.294;-3.754;2023-08-01T03:35:58;6.03;;;3.10;;
19782;SDS011;10051;40.294;-3.754;2023-08-01T03:38:24;6.05;;;3.00;;
19782;SDS011;10051;40.294;-3.754;2023-08-01T03:40:50;5.53;;;3.13;;
19782;SDS011;10051;40.294;-3.754;2023-08-01T03:43:15;7.05;;;3.15;;
19782;SDS011;10051;40.294;-3.754;2023-08-01T03:45:41;4.53;;;2.88;;
19782;SDS011;10051;40.294;-3.754;2023-08-01T03:48:06;5.70;;;3.25;;
19782;SDS011;10051;40.294;-3.754;2023-08-01T03:50:32;5.40;;;2.90;;
19782;SDS011;10051;40.294;-3.754;2023-08-01T03:52:57;7.00;;;3.13;;
19782;SDS011;10051;40.294;-3.754;2023-08-01T03:55:23;4.72;;;2.83;;
19782;SDS011;10051;40.294;-3.754;2023-08-01T03:57:49;4.78;;;3.00;;
19782;SDS011;10051;40.294;-3.754;2023-08-01T04:00:14;6.53;;;3.10;;
19782;SDS011;10051;40.294;-3.754;2023-08-01T04:02:43;7.45;;;3.10;;
19782;SDS011;10051;40.294;-3.754;2023-08-01T04:05:09;3.90;;;2.97;;
19782;SDS011;10051;40.294;-3.754;2023-08-01T04:07:35;5.63;;;2.90;;
19782;SDS011;10051;40.294;-3.754;2023-08-01T04:10:02;7.15;;;3.10;;
19782;SDS011;10051;40.294;-3.754;2023-08-01T04:12:28;4.35;;;2.58;;
19782;SDS011;10051;40.294;-3.754;2023-08-01T04:14:55;4.20;;;2.72;;
19782;SDS011;10051;40.294;-3.754;2023-08-01T04:17:20;5.35;;;3.00;;
19782;SDS011;10051;40.294;-3.754;2023-08-01T04:19:46;6.00;;;3.20;;
19782;SDS011;10051;40.294;-3.754;2023-08-01T04:22:11;4.55;;;2.75;;
19782;SDS011;10051;40.294;-3.754;2023-08-01T04:24:37;10.90;;;2.80;;
19782;SDS011;10051;40.294;-3.754;2023-08-01T04:27:06;4.00;;;2.67;;
19782;SDS011;10051;40.294;-3.754;2023-08-01T04:29:31;7.03;;;2.88;;
19782;SDS011;10051;40.294;-3.754;2023-08-01T04:31:57;4.30;;;3.15;;
19782;SDS011;10051;40.294;-3.754;2023-08-01T04:34:22;5.03;;;2.85;;
19782;SDS011;10051;40.294;-3.754;2023-08-01T04:36:48;3.78;;;2.58;;
19782;SDS011;10051;40.294;-3.754;2023-08-01T04:39:14;4.38;;;2.70;;
19782;SDS011;10051;40.294;-3.754;2023-08-01T04:41:39;3.60;;;2.67;;
19782;SDS011;10051;40.294;-3.754;2023-08-01T04:44:05;4.85;;;3.30;;
19782;SDS011;10051;40.294;-3.754;2023-08-01T04:46:31;9.52;;;6.72;;
19782;SDS011;10051;40.294;-3.754;2023-08-01T04:48:57;7.97;;;4.00;;
19782;SDS011;10051;40.294;-3.754;2023-08-01T04:51:22;3.88;;;2.97;;
19782;SDS011;10051;40.294;-3.754;2023-08-01T04:53:48;3.92;;;2.90;;
19782;SDS011;10051;40.294;-3.754;2023-08-01T04:56:14;6.25;;;3.05;;
19782;SDS011;10051;40.294;-3.754;2023-08-01T04:58:40;7.28;;;3.13;;
19782;SDS011;10051;40.294;-3.754;2023-08-01T05:01:05;6.82;;;2.72;;
19782;SDS011;10051;40.294;-3.754;2023-08-01T05:03:31;6.63;;;2.80;;
19782;SDS011;10051;40.294;-3.754;2023-08-01T05:05:56;5.70;;;2.83;;
19782;SDS011;10051;40.294;-3.754;2023-08-01T05:08:22;5.47;;;3.20;;
19782;SDS011;10051;40.294;-3.754;2023-08-01T05:10:47;6.93;;;3.25;;
19782;SDS011;10051;40.294;-3.754;2023-08-01T05:13:15;6.35;;;3.25;;
19782;SDS011;10051;40.294;-3.754;2023-08-01T05:15:43;6.43;;;3.47;;
19782;SDS011;10051;40.294;-3.754;2023-08-01T05:18:10;6.45;;;3.20;;
19782;SDS011;10051;40.294;-3.754;2023-08-01T05:20:35;4.80;;;3.15;;
19782;SDS011;10051;40.294;-3.754;2023-08-01T05:23:01;6.85;;;3.58;;
19782;SDS011;10051;40.294;-3.754;2023-08-01T05:25:27;9.60;;;2.90;;
19782;SDS011;10051;40.294;-3.754;2023-08-01T05:27:52;7.03;;;3.50;;
19782;SDS011;10051;40.294;-3.754;2023-08-01T05:30:18;5.65;;;2.97;;
19782;SDS011;10051;40.294;-3.754;2023-08-01T05:32:43;6.45;;;3.00;;
19782;SDS011;10051;40.294;-3.754;2023-08-01T05:35:10;5.15;;;3.20;;
19782;SDS011;10051;40.294;-3.754;2023-08-01T05:37:36;5.78;;;3.10;;
19782;SDS011;10051;40.294;-3.754;2023-08-01T05:40:04;5.45;;;2.90;;
19782;SDS011;10051;40.294;-3.754;2023-08-01T05:42:31;5.57;;;2.95;;
19782;SDS011;10051;40.294;-3.754;2023-08-01T05:44:56;6.97;;;3.10;;
19782;SDS011;10051;40.294;-3.754;2023-08-01T05:47:22;20.20;;;3.20;;
19782;SDS011;10051;40.294;-3.754;2023-08-01T05:49:48;7.53;;;3.30;;
19782;SDS011;10051;40.294;-3.754;2023-08-01T05:52:14;8.13;;;3.20;;
19782;SDS011;10051;40.294;-3.754;2023-08-01T05:54:39;7.28;;;3.20;;
19782;SDS011;10051;40.294;-3.754;2023-08-01T05:57:05;6.78;;;3.10;;
19782;SDS011;10051;40.294;-3.754;2023-08-01T05:59:31;6.70;;;3.20;;
19782;SDS011;10051;40.294;-3.754;2023-08-01T06:01:56;7.78;;;3.20;;
19782;SDS011;10051;40.294;-3.754;2023-08-01T06:04:25;17.42;;;3.70;;
19782;SDS011;10051;40.294;-3.754;2023-08-01T06:06:50;12.52;;;3.35;;
19782;SDS011;10051;40.294;-3.754;2023-08-01T06:09:16;10.68;;;3.50;;
19782;SDS011;10051;40.294;-3.754;2023-08-01T06:11:41;9.40;;;3.28;;
19782;SDS011;10051;40.294;-3.754;2023-08-01T06:14:07;6.20;;;3.70;;
19782;SDS011;10051;40.294;-3.754;2023-08-01T06:16:33;9.98;;;3.22;;
19782;SDS011;10051;40.294;-3.754;2023-08-01T06:18:59;6.53;;;3.28;;
19782;SDS011;10051;40.294;-3.754;2023-08-01T06:21:25;4.85;;;2.92;;
19782;SDS011;10051;40.294;-3.754;2023-08-01T06:23:50;6.70;;;2.95;;
19782;SDS011;10051;40.294;-3.754;2023-08-01T06:26:16;5.45;;;3.20;;
19782;SDS011;10051;40.294;-3.754;2023-08-01T06:28:42;7.47;;;3.45;;
19782;SDS011;10051;40.294;-3.754;2023-08-01T06:31:07;6.85;;;3.17;;
19782;SDS011;10051;40.294;-3.754;2023-08-01T06:33:33;7.07;;;3.13;;
19782;SDS011;10051;40.294;-3.754;2023-08-01T06:35:58;4.97;;;3.20;;
19782;SDS011;10051;40.294;-3.754;2023-08-01T06:38:24;6.47;;;3.30;;
19782;SDS011;10051;40.294;-3.754;2023-08-01T06:40:50;6.38;;;3.20;;
19782;SDS011;10051;40.294;-3.754;2023-08-01T06:43:15;6.93;;;3.22;;
19782;SDS011;10051;40.294;-3.754;2023-08-01T06:45:41;5.80;;;3.35;;
19782;SDS011;10051;40.294;-3.754;2023-08-01T06:48:06;5.90;;;3.30;;
19782;SDS011;10051;40.294;-3.754;2023-08-01T06:50:33;8.55;;;3.17;;
19782;SDS011;10051;40.294;-3.754;2023-08-01T06:52:59;5.63;;;2.83;;
19782;SDS011;10051;40.294;-3.754;2023-08-01T06:55:26;7.78;;;3.72;;
19782;SDS011;10051;40.294;-3.754;2023-08-01T06:57:51;7.32;;;3.20;;
19782;SDS011;10051;40.294;-3.754;2023-08-01T07:00:17;8.32;;;3.30;;
19782;SDS011;10051;40.294;-3.754;2023-08-01T07:02:43;5.75;;;3.30;;
19782;SDS011;10051;40.294;-3.754;2023-08-01T07:05:08;4.93;;;3.28;;
19782;SDS011;10051;40.294;-3.754;2023-08-01T07:07:34;8.02;;;3.50;;
19782;SDS011;10051;40.294;-3.754;2023-08-01T07:09:59;6.00;;;3.50;;
19782;SDS011;10051;40.294;-3.754;2023-08-01T07:12:25;7.60;;;3.33;;
19782;SDS011;10051;40.294;-3.754;2023-08-01T07:14:51;9.02;;;3.20;;
19782;SDS011;10051;40.294;-3.754;2023-08-01T07:17:16;8.60;;;3.38;;
19782;SDS011;10051;40.294;-3.754;2023-08-01T07:19:42;9.82;;;3.60;;
19782;SDS011;10051;40.294;-3.754;2023-08-01T07:22:08;8.27;;;3.75;;
19782;SDS011;10051;40.294;-3.754;2023-08-01T07:24:34;8.05;;;3.50;;
19782;SDS011;10051;40.294;-3.754;2023-08-01T07:26:59;9.13;;;3.40;;
19782;SDS011;10051;40.294;-3.754;2023-08-01T07:29:25;10.55;;;3.55;;
19782;SDS011;10051;40.294;-3.754;2023-08-01T07:31:50;8.50;;;3.77;;
19782;SDS011;10051;40.294;-3.754;2023-08-01T07:34:16;10.90;;;3.28;;
19782;SDS011;10051;40.294;-3.754;2023-08-01T07:36:42;5.55;;;3.30;;
19782;SDS011;10051;40.294;-3.754;2023-08-01T07:39:07;9.30;;;3.85;;
19782;SDS011;10051;40.294;-3.754;2023-08-01T07:41:33;5.80;;;3.42;;
19782;SDS011;10051;40.294;-3.754;2023-08-01T07:44:01;5.35;;;3.20;;
19782;SDS011;10051;40.294;-3.754;2023-08-01T07:46:28;6.82;;;3.53;;
19782;SDS011;10051;40.294;-3.754;2023-08-01T07:48:54;11.70;;;3.50;;
19782;SDS011;10051;40.294;-3.754;2023-08-01T07:51:20;8.32;;;3.35;;
19782;SDS011;10051;40.294;-3.754;2023-08-01T07:53:45;8.93;;;3.20;;
19782;SDS011;10051;40.294;-3.754;2023-08-01T07:56:11;6.10;;;3.28;;
19782;SDS011;10051;40.294;-3.754;2023-08-01T07:58:37;6.53;;;3.20;;
19782;SDS011;10051;40.294;-3.754;2023-08-01T08:01:06;8.10;;;3.60;;
19782;SDS011;10051;40.294;-3.754;2023-08-01T08:03:32;6.60;;;3.50;;
19782;SDS011;10051;40.294;-3.754;2023-08-01T08:05:57;5.85;;;3.50;;
19782;SDS011;10051;40.294;-3.754;2023-08-01T08:08:23;6.45;;;3.05;;
19782;SDS011;10051;40.294;-3.754;2023-08-01T08:10:49;6.55;;;3.50;;
19782;SDS011;10051;40.294;-3.754;2023-08-01T08:13:17;6.72;;;3.28;;
19782;SDS011;10051;40.294;-3.754;2023-08-01T08:15:43;9.15;;;3.00;;
19782;SDS011;10051;40.294;-3.754;2023-08-01T08:18:09;8.43;;;3.40;;
19782;SDS011;10051;40.294;-3.754;2023-08-01T08:20:40;7.95;;;3.20;;
19782;SDS011;10051;40.294;-3.754;2023-08-01T08:23:08;6.43;;;3.53;;
19782;SDS011;10051;40.294;-3.754;2023-08-01T08:25:33;10.27;;;3.55;;
19782;SDS011;10051;40.294;-3.754;2023-08-01T08:27:59;7.22;;;3.35;;
19782;SDS011;10051;40.294;-3.754;2023-08-01T08:30:25;12.15;;;3.67;;
19782;SDS011;10051;40.294;-3.754;2023-08-01T08:32:50;6.68;;;3.50;;
19782;SDS011;10051;40.294;-3.754;2023-08-01T08:35:16;6.85;;;3.28;;
19782;SDS011;10051;40.294;-3.754;2023-08-01T08:37:41;8.20;;;3.80;;
19782;SDS011;10051;40.294;-3.754;2023-08-01T08:40:07;7.05;;;3.20;;
19782;SDS011;10051;40.294;-3.754;2023-08-01T08:42:33;8.85;;;3.58;;
19782;SDS011;10051;40.294;-3.754;2023-08-01T08:45:02;9.50;;;3.58;;
19782;SDS011;10051;40.294;-3.754;2023-08-01T08:47:31;9.32;;;3.25;;
19782;SDS011;10051;40.294;-3.754;2023-08-01T08:50:03;6.55;;;3.17;;
19782;SDS011;10051;40.294;-3.754;2023-08-01T08:52:30;6.38;;;3.45;;
19782;SDS011;10051;40.294;-3.754;2023-08-01T08:54:56;7.78;;;3.30;;
19782;SDS011;10051;40.294;-3.754;2023-08-01T08:57:22;18.63;;;3.97;;
19782;SDS011;10051;40.294;-3.754;2023-08-01T08:59:49;15.88;;;6.90;;
19782;SDS011;10051;40.294;-3.754;2023-08-01T09:02:16;7.47;;;3.57;;
19782;SDS011;10051;40.294;-3.754;2023-08-01T09:04:43;9.48;;;3.63;;
19782;SDS011;10051;40.294;-3.754;2023-08-01T09:07:09;9.30;;;3.42;;
19782;SDS011;10051;40.294;-3.754;2023-08-01T09:09:36;9.82;;;3.60;;
19782;SDS011;10051;40.294;-3.754;2023-08-01T09:12:02;7.43;;;3.40;;
19782;SDS011;10051;40.294;-3.754;2023-08-01T09:14:28;7.95;;;3.60;;
19782;SDS011;10051;40.294;-3.754;2023-08-01T09:16:55;6.28;;;3.60;;
19782;SDS011;10051;40.294;-3.754;2023-08-01T09:19:31;7.13;;;3.45;;
19782;SDS011;10051;40.294;-3.754;2023-08-01T09:21:57;15.93;;;3.92;;
19782;SDS011;10051;40.294;-3.754;2023-08-01T09:24:22;12.70;;;3.60;;
19782;SDS011;10051;40.294;-3.754;2023-08-01T09:26:48;7.78;;;3.47;;
19782;SDS011;10051;40.294;-3.754;2023-08-01T09:29:17;8.63;;;3.58;;
19782;SDS011;10051;40.294;-3.754;2023-08-01T09:31:43;10.93;;;3.35;;
19782;SDS011;10051;40.294;-3.754;2023-08-01T09:34:23;6.78;;;3.53;;
19782;SDS011;10051;40.294;-3.754;2023-08-01T09:36:49;9.45;;;3.38;;
19782;SDS011;10051;40.294;-3.754;2023-08-01T09:39:17;7.00;;;3.40;;
19782;SDS011;10051;40.294;-3.754;2023-08-01T09:41:44;13.05;;;4.00;;
19782;SDS011;10051;40.294;-3.754;2023-08-01T09:44:16;10.50;;;3.53;;
19782;SDS011;10051;40.294;-3.754;2023-08-01T09:46:42;6.65;;;3.40;;
19782;SDS011;10051;40.294;-3.754;2023-08-01T09:49:09;6.47;;;3.53;;
19782;SDS011;10051;40.294;-3.754;2023-08-01T09:51:48;6.53;;;3.20;;
19782;SDS011;10051;40.294;-3.754;2023-08-01T09:54:15;11.75;;;3.63;;
19782;SDS011;10051;40.294;-3.754;2023-08-01T09:56:44;12.27;;;3.38;;
19782;SDS011;10051;40.294;-3.754;2023-08-01T09:59:10;8.75;;;3.50;;
19782;SDS011;10051;40.294;-3.754;2023-08-01T10:01:36;8.07;;;3.70;;
19782;SDS011;10051;40.294;-3.754;2023-08-01T10:04:04;6.53;;;3.50;;
19782;SDS011;10051;40.294;-3.754;2023-08-01T10:06:33;6.43;;;3.65;;
19782;SDS011;10051;40.294;-3.754;2023-08-01T10:09:02;7.55;;;3.70;;
19782;SDS011;10051;40.294;-3.754;2023-08-01T10:11:27;6.85;;;3.50;;
19782;SDS011;10051;40.294;-3.754;2023-08-01T10:13:59;6.95;;;3.42;;
19782;SDS011;10051;40.294;-3.754;2023-08-01T10:16:25;10.07;;;3.80;;
19782;SDS011;10051;40.294;-3.754;2023-08-01T10:18:51;8.07;;;3.55;;
19782;SDS011;10051;40.294;-3.754;2023-08-01T10:21:18;9.07;;;3.70;;
19782;SDS011;10051;40.294;-3.754;2023-08-01T10:23:46;7.03;;;3.88;;
19782;SDS011;10051;40.294;-3.754;2023-08-01T10:26:12;9.00;;;3.70;;
19782;SDS011;10051;40.294;-3.754;2023-08-01T10:28:40;7.97;;;3.53;;
19782;SDS011;10051;40.294;-3.754;2023-08-01T10:31:10;5.38;;;3.33;;
19782;SDS011;10051;40.294;-3.754;2023-08-01T10:33:37;8.10;;;3.50;;
19782;SDS011;10051;40.294;-3.754;2023-08-01T10:36:13;5.72;;;3.40;;
19782;SDS011;10051;40.294;-3.754;2023-08-01T10:38:49;6.05;;;3.50;;
19782;SDS011;10051;40.294;-3.754;2023-08-01T10:41:31;6.13;;;3.45;;
19782;SDS011;10051;40.294;-3.754;2023-08-01T10:49:13;6.07;;;3.10;;
19782;SDS011;10051;40.294;-3.754;2023-08-01T10:51:39;5.05;;;3.40;;
19782;SDS011;10051;40.294;-3.754;2023-08-01T10:54:05;8.40;;;3.53;;
19782;SDS011;10051;40.294;-3.754;2023-08-01T10:56:30;6.57;;;3.33;;
19782;SDS011;10051;40.294;-3.754;2023-08-01T10:58:58;8.30;;;3.65;;
19782;SDS011;10051;40.294;-3.754;2023-08-01T11:01:24;5.78;;;3.30;;
19782;SDS011;10051;40.294;-3.754;2023-08-01T11:03:51;5.97;;;3.55;;
19782;SDS011;10051;40.294;-3.754;2023-08-01T11:06:17;7.82;;;3.60;;
19782;SDS011;10051;40.294;-3.754;2023-08-01T11:08:46;5.70;;;3.40;;
19782;SDS011;10051;40.294;-3.754;2023-08-01T11:11:12;5.35;;;3.40;;
19782;SDS011;10051;40.294;-3.754;2023-08-01T11:13:39;4.97;;;3.40;;
19782;SDS011;10051;40.294;-3.754;2023-08-01T11:16:05;5.20;;;3.35;;
19782;SDS011;10051;40.294;-3.754;2023-08-01T11:18:44;5.82;;;3.45;;
19782;SDS011;10051;40.294;-3.754;2023-08-01T11:21:10;5.70;;;3.22;;
19782;SDS011;10051;40.294;-3.754;2023-08-01T11:23:36;4.35;;;3.47;;
19782;SDS011;10051;40.294;-3.754;2023-08-01T11:26:08;6.68;;;3.65;;
19782;SDS011;10051;40.294;-3.754;2023-08-01T11:28:34;5.93;;;3.67;;
19782;SDS011;10051;40.294;-3.754;2023-08-01T11:30:59;6.53;;;3.50;;
19782;SDS011;10051;40.294;-3.754;2023-08-01T11:33:25;8.80;;;3.30;;
19782;SDS011;10051;40.294;-3.754;2023-08-01T11:35:54;5.00;;;3.50;;
19782;SDS011;10051;40.294;-3.754;2023-08-01T11:38:22;7.35;;;3.35;;
19782;SDS011;10051;40.294;-3.754;2023-08-01T11:40:49;6.20;;;3.47;;
19782;SDS011;10051;40.294;-3.754;2023-08-01T11:43:16;4.88;;;3.58;;
19782;SDS011;10051;40.294;-3.754;2023-08-01T11:46:15;6.47;;;3.40;;
19782;SDS011;10051;40.294;-3.754;2023-08-01T11:48:35;5.22;;;3.42;;
19782;SDS011;10051;40.294;-3.754;2023-08-01T11:51:01;7.25;;;3.95;;
19782;SDS011;10051;40.294;-3.754;2023-08-01T11:53:28;4.75;;;3.55;;
19782;SDS011;10051;40.294;-3.754;2023-08-01T11:55:54;6.80;;;3.40;;
19782;SDS011;10051;40.294;-3.754;2023-08-01T11:58:28;7.40;;;4.50;;
19782;SDS011;10051;40.294;-3.754;2023-08-01T12:03:54;8.57;;;3.17;;
19782;SDS011;10051;40.294;-3.754;2023-08-01T12:06:20;4.70;;;3.15;;
19782;SDS011;10051;40.294;-3.754;2023-08-01T12:08:48;6.35;;;3.17;;
19782;SDS011;10051;40.294;-3.754;2023-08-01T12:11:19;4.63;;;3.13;;
19782;SDS011;10051;40.294;-3.754;2023-08-01T12:14:03;4.68;;;2.90;;
19782;SDS011;10051;40.294;-3.754;2023-08-01T12:16:34;4.63;;;3.15;;
19782;SDS011;10051;40.294;-3.754;2023-08-01T12:19:00;5.88;;;3.10;;
19782;SDS011;10051;40.294;-3.754;2023-08-01T12:21:26;8.27;;;3.33;;
19782;SDS011;10051;40.294;-3.754;2023-08-01T12:23:52;5.88;;;3.17;;
19782;SDS011;10051;40.294;-3.754;2023-08-01T12:26:18;6.75;;;3.22;;
19782;SDS011;10051;40.294;-3.754;2023-08-01T12:28:44;3.53;;;2.58;;
19782;SDS011;10051;40.294;-3.754;2023-08-01T12:31:09;5.07;;;3.28;;
19782;SDS011;10051;40.294;-3.754;2023-08-01T12:33:35;6.47;;;3.38;;
19782;SDS011;10051;40.294;-3.754;2023-08-01T12:36:00;5.22;;;2.75;;
19782;SDS011;10051;40.294;-3.754;2023-08-01T12:38:28;4.43;;;2.88;;
19782;SDS011;10051;40.294;-3.754;2023-08-01T12:40:54;4.68;;;2.75;;
19782;SDS011;10051;40.294;-3.754;2023-08-01T12:43:19;4.10;;;2.40;;
19782;SDS011;10051;40.294;-3.754;2023-08-01T12:45:46;4.85;;;2.92;;
19782;SDS011;10051;40.294;-3.754;2023-08-01T12:48:13;6.13;;;2.70;;
19782;SDS011;10051;40.294;-3.754;2023-08-01T12:50:42;6.35;;;2.70;;
19782;SDS011;10051;40.294;-3.754;2023-08-01T12:53:10;5.53;;;2.78;;
19782;SDS011;10051;40.294;-3.754;2023-08-01T12:55:36;4.60;;;2.80;;
19782;SDS011;10051;40.294;-3.754;2023-08-01T12:58:02;3.85;;;2.88;;
19782;SDS011;10051;40.294;-3.754;2023-08-01T13:00:29;6.35;;;3.08;;
19782;SDS011;10051;40.294;-3.754;2023-08-01T13:02:55;4.82;;;2.80;;
19782;SDS011;10051;40.294;-3.754;2023-08-01T13:05:21;5.10;;;2.65;;
19782;SDS011;10051;40.294;-3.754;2023-08-01T13:07:47;7.32;;;3.00;;
19782;SDS011;10051;40.294;-3.754;2023-08-01T13:10:14;5.20;;;3.03;;
19782;SDS011;10051;40.294;-3.754;2023-08-01T13:12:40;4.13;;;2.90;;
19782;SDS011;10051;40.294;-3.754;2023-08-01T13:15:06;5.57;;;3.30;;
19782;SDS011;10051;40.294;-3.754;2023-08-01T13:17:31;3.92;;;2.90;;
19782;SDS011;10051;40.294;-3.754;2023-08-01T13:19:57;5.65;;;3.00;;
19782;SDS011;10051;40.294;-3.754;2023-08-01T13:22:23;4.38;;;3.10;;
19782;SDS011;10051;40.294;-3.754;2023-08-01T13:24:49;5.05;;;3.05;;
19782;SDS011;10051;40.294;-3.754;2023-08-01T13:27:14;5.00;;;3.20;;
19782;SDS011;10051;40.294;-3.754;2023-08-01T13:29:42;5.63;;;2.80;;
19782;SDS011;10051;40.294;-3.754;2023-08-01T13:32:08;9.10;;;3.08;;
19782;SDS011;10051;40.294;-3.754;2023-08-01T13:34:33;4.78;;;3.08;;
19782;SDS011;10051;40.294;-3.754;2023-08-01T13:36:59;10.15;;;2.80;;
19782;SDS011;10051;40.294;-3.754;2023-08-01T13:39:25;4.78;;;2.75;;
19782;SDS011;10051;40.294;-3.754;2023-08-01T13:41:50;3.28;;;2.53;;
19782;SDS011;10051;40.294;-3.754;2023-08-01T13:44:16;3.92;;;2.67;;
19782;SDS011;10051;40.294;-3.754;2023-08-01T13:46:41;6.40;;;2.70;;
19782;SDS011;10051;40.294;-3.754;2023-08-01T13:49:07;3.88;;;2.80;;
19782;SDS011;10051;40.294;-3.754;2023-08-01T13:51:33;5.75;;;2.60;;
19782;SDS011;10051;40.294;-3.754;2023-08-01T13:53:59;3.65;;;2.80;;
19782;SDS011;10051;40.294;-3.754;2023-08-01T13:56:25;6.18;;;2.75;;
19782;SDS011;10051;40.294;-3.754;2023-08-01T13:58:54;3.22;;;2.60;;
19782;SDS011;10051;40.294;-3.754;2023-08-01T14:01:20;5.07;;;2.60;;
19782;SDS011;10051;40.294;-3.754;2023-08-01T14:03:45;3.50;;;2.47;;
19782;SDS011;10051;40.294;-3.754;2023-08-01T14:06:12;3.42;;;2.47;;
19782;SDS011;10051;40.294;-3.754;2023-08-01T14:08:40;4.93;;;2.78;;
19782;SDS011;10051;40.294;-3.754;2023-08-01T14:11:07;5.05;;;2.58;;
19782;SDS011;10051;40.294;-3.754;2023-08-01T14:13:35;4.25;;;2.85;;
19782;SDS011;10051;40.294;-3.754;2023-08-01T14:16:01;4.22;;;2.65;;
19782;SDS011;10051;40.294;-3.754;2023-08-01T14:18:30;4.28;;;2.80;;
19782;SDS011;10051;40.294;-3.754;2023-08-01T14:20:56;4.85;;;3.00;;
19782;SDS011;10051;40.294;-3.754;2023-08-01T14:23:22;4.15;;;2.50;;
19782;SDS011;10051;40.294;-3.754;2023-08-01T14:25:47;6.47;;;2.75;;
19782;SDS011;10051;40.294;-3.754;2023-08-01T14:28:13;5.38;;;2.70;;
19782;SDS011;10051;40.294;-3.754;2023-08-01T14:30:39;5.47;;;2.75;;
19782;SDS011;10051;40.294;-3.754;2023-08-01T14:33:06;5.30;;;2.60;;
19782;SDS011;10051;40.294;-3.754;2023-08-01T14:35:33;3.63;;;2.47;;
19782;SDS011;10051;40.294;-3.754;2023-08-01T14:38:00;5.13;;;2.35;;